Time;durP1;ratioP1;P1;durP2;ratioP2;P2;SDS_P1;SDS_P2;PMS_P1;PMS_P2;Temp;Humidity;BMP_temperature;BMP_pressure;BME280_temperature;BME280_humidity;BME280_pressure;Samples;Min_cycle;Max_cycle;Signal;HPM_P1;HPM_P2
2021/01/17 00:00:17;;;;;;;;;;;;;;;4.06;54.84;100896.63;5109855;27;19915;-84
2021/01/17 00:03:01;;;;;;;;;;;;;;;4.28;55.35;100899.84;5136347;27;19911;-84
2021/01/17 00:05:46;;;;;;;;;;;;;;;4.77;55.24;100897.44;5130454;27;19911;-84
2021/01/17 00:08:31;;;;;;;;;;;;;;;4.87;55.34;100893.91;5120160;27;19911;-83
2021/01/17 00:11:15;;;;;;;;;;;;;;;4.70;53.74;100888.81;5117163;27;19911;-84
2021/01/17 00:14:00;;;;;;;;;;;;;;;4.53;53.95;100883.69;5121750;27;19912;-84
2021/01/17 00:16:44;;;;;;;;;;;;;;;4.50;54.58;100884.25;5114345;27;19915;-84
2021/01/17 00:19:30;;;;;;;;;;;;;;;4.48;53.95;100880.19;5133634;27;20385;-81
2021/01/17 00:22:14;;;;;;;;;;;;;;;4.44;54.01;100871.06;5128445;27;19911;-82
2021/01/17 00:24:59;;;;;;;;;;;;;;;4.50;53.90;100869.97;5114960;27;19911;-84
2021/01/17 00:27:44;;;;;;;;;;;;;;;4.59;55.10;100871.84;5117602;27;19912;-85
2021/01/17 00:30:30;;;;;;;;;;;;;;;4.75;53.97;100867.25;5122751;27;19911;-84
2021/01/17 00:33:15;;;;;;;;;;;;;;;4.77;53.78;100873.19;5122732;27;19911;-84
2021/01/17 00:35:59;;;;;;;;;;;;;;;4.58;53.14;100869.41;5114616;27;19911;-82
2021/01/17 00:38:44;;;;;;;;;;;;;;;4.69;55.42;100866.44;5111154;27;20408;-83
2021/01/17 00:41:28;;;;;;;;;;;;;;;4.75;54.94;100869.94;5131984;27;19916;-84
2021/01/17 00:44:13;;;;;;;;;;;;;;;4.81;54.30;100868.84;5135438;27;19911;-85
2021/01/17 00:46:57;;;;;;;;;;;;;;;4.56;53.02;100868.91;5112189;27;19911;-84
2021/01/17 00:49:45;;;;;;;;;;;;;;;4.72;53.97;100851.66;5120986;27;19932;-83
2021/01/17 00:52:33;;;;;;;;;;;;;;;4.57;55.10;100857.06;5115558;27;19911;-84
2021/01/17 00:55:18;;;;;;;;;;;;;;;4.82;55.48;100853.50;5119559;27;19912;-84
2021/01/17 00:58:03;;;;;;;;;;;;;;;4.72;53.88;100846.25;5127789;27;19911;-84
2021/01/17 01:00:49;;;;;;;;;;;;;;;4.91;52.76;100847.28;5111865;27;19916;-83
2021/01/17 01:03:42;;;;;;;;;;;;;;;4.88;53.01;100847.81;5121671;27;19912;-83
2021/01/17 01:06:27;;;;;;;;;;;;;;;4.89;53.46;100852.13;5115196;27;19912;-84
2021/01/17 01:09:12;;;;;;;;;;;;;;;4.89;52.89;100849.44;5126509;27;19912;-84
2021/01/17 01:11:56;;;;;;;;;;;;;;;4.78;53.18;100839.75;5119163;27;19911;-84
2021/01/17 01:14:41;;;;;;;;;;;;;;;4.56;54.23;100837.41;5121957;27;19911;-84
2021/01/17 01:17:26;;;;;;;;;;;;;;;4.74;55.18;100839.50;5107137;28;19911;-84
2021/01/17 01:20:11;;;;;;;;;;;;;;;4.57;54.58;100843.59;5112817;27;19915;-84
2021/01/17 01:22:56;;;;;;;;;;;;;;;4.56;54.75;100845.47;5130065;27;20381;-84
2021/01/17 01:25:41;;;;;;;;;;;;;;;4.64;54.63;100844.09;5115029;27;19911;-83
2021/01/17 01:28:25;;;;;;;;;;;;;;;4.64;55.42;100844.09;5083537;22;19920;-80
2021/01/17 01:31:10;;;;;;;;;;;;;;;4.74;54.04;100842.19;5076669;28;19916;-81
2021/01/17 01:33:56;;;;;;;;;;;;;;;4.62;54.73;100838.19;5075162;28;19916;-79
2021/01/17 01:36:41;;;;;;;;;;;;;;;4.43;54.89;100829.06;5073102;28;19919;-81
2021/01/17 01:39:26;;;;;;;;;;;;;;;4.36;55.04;100818.59;5079909;28;20377;-80
2021/01/17 01:42:11;;;;;;;;;;;;;;;4.32;55.45;100805.94;5092347;28;20293;-80
2021/01/17 01:44:55;;;;;;;;;;;;;;;4.42;55.33;100805.94;5080318;28;19912;-80
2021/01/17 01:47:40;;;;;;;;;;;;;;;4.43;55.53;100802.13;5080747;28;19916;-80
2021/01/17 01:50:25;;;;;;;;;;;;;;;4.44;55.77;100807.25;5062336;28;19912;-79
2021/01/17 01:53:10;;;;;;;;;;;;;;;4.58;56.12;100805.59;5065047;28;19912;-80
2021/01/17 01:55:56;;;;;;;;;;;;;;;4.52;55.80;100792.44;5092524;28;20377;-79
2021/01/17 01:58:41;;;;;;;;;;;;;;;4.68;55.12;100802.88;5079158;28;19916;-79
2021/01/17 02:01:26;;;;;;;;;;;;;;;4.75;55.18;100794.53;5092470;28;19924;-79
2021/01/17 02:04:11;;;;;;;;;;;;;;;4.69;54.47;100787.53;5079936;28;19912;-80
2021/01/17 02:07:14;;;;;;;;;;;;;;;4.54;54.58;100779.50;5067854;28;19912;-80
2021/01/17 02:09:59;;;;;;;;;;;;;;;4.52;54.82;100779.75;5064967;28;19912;-80
2021/01/17 02:12:46;;;;;;;;;;;;;;;4.34;55.36;100771.47;5070044;28;19912;-81
2021/01/17 02:15:32;;;;;;;;;;;;;;;4.47;54.65;100755.53;5079858;28;19912;-80
2021/01/17 02:18:17;;;;;;;;;;;;;;;4.39;55.37;100748.03;5077527;28;19912;-80
2021/01/17 02:21:02;;;;;;;;;;;;;;;4.29;55.48;100748.88;5093319;28;19920;-79
2021/01/17 02:23:52;;;;;;;;;;;;;;;4.45;55.56;100746.13;5078592;28;19912;-80
2021/01/17 02:26:40;;;;;;;;;;;;;;;4.46;55.52;100745.88;5076441;28;19912;-80
2021/01/17 02:29:26;;;;;;;;;;;;;;;4.50;55.00;100727.28;5073795;28;19912;-80
2021/01/17 02:32:11;;;;;;;;;;;;;;;4.53;54.90;100726.72;5070010;28;19920;-80
2021/01/17 02:34:56;;;;;;;;;;;;;;;4.68;54.17;100726.66;5065860;28;19916;-80
2021/01/17 02:38:00;;;;;;;;;;;;;;;4.69;54.06;100739.88;5075606;28;19916;-80
2021/01/17 02:40:47;;;;;;;;;;;;;;;4.67;54.31;100733.16;5059472;28;20294;-80
2021/01/17 02:43:33;;;;;;;;;;;;;;;4.53;55.72;100742.88;5067618;28;19912;-81
2021/01/17 02:46:18;;;;;;;;;;;;;;;4.43;55.54;100742.91;5075585;28;19913;-81
2021/01/17 02:49:02;;;;;;;;;;;;;;;4.47;55.51;100735.91;5066529;28;19912;-80
2021/01/17 02:51:51;;;;;;;;;;;;;;;4.63;56.60;100730.19;5088531;28;19912;-81
2021/01/17 02:54:37;;;;;;;;;;;;;;;4.28;55.87;100728.41;5077910;28;19912;-81
2021/01/17 02:57:24;;;;;;;;;;;;;;;4.22;56.01;100728.69;5087392;28;19912;-80
2021/01/17 03:00:10;;;;;;;;;;;;;;;4.22;56.14;100734.06;5064416;28;19917;-80
2021/01/17 03:02:56;;;;;;;;;;;;;;;4.30;56.26;100720.88;5074105;28;19912;-81
2021/01/17 03:05:42;;;;;;;;;;;;;;;4.33;56.00;100711.44;5087479;28;19912;-81
2021/01/17 03:08:27;;;;;;;;;;;;;;;4.45;55.65;100719.22;5084501;28;19912;-81
2021/01/17 03:11:12;;;;;;;;;;;;;;;4.29;55.94;100711.19;5086548;28;19916;-81
2021/01/17 03:13:56;;;;;;;;;;;;;;;4.07;56.97;100710.69;5069330;28;19913;-80
2021/01/17 03:16:41;;;;;;;;;;;;;;;4.13;56.87;100700.72;5071610;28;19916;-80
2021/01/17 03:19:26;;;;;;;;;;;;;;;4.06;57.22;100692.97;5099147;28;19912;-80
2021/01/17 03:22:10;;;;;;;;;;;;;;;4.29;56.16;100688.84;5083313;28;19912;-81
2021/01/17 03:24:55;;;;;;;;;;;;;;;4.32;56.31;100676.75;5085486;28;19912;-81
2021/01/17 03:27:40;;;;;;;;;;;;;;;4.44;55.98;100682.59;5068936;28;20289;-81
2021/01/17 03:30:25;;;;;;;;;;;;;;;4.30;56.09;100682.41;5073795;28;20289;-81
2021/01/17 03:33:10;;;;;;;;;;;;;;;4.29;56.22;100678.09;5097897;28;19912;-80
2021/01/17 03:35:54;;;;;;;;;;;;;;;4.38;55.80;100679.13;5067801;28;19916;-80
2021/01/17 03:38:39;;;;;;;;;;;;;;;4.36;55.86;100684.00;5082892;28;19912;-80
2021/01/17 03:41:24;;;;;;;;;;;;;;;4.34;56.36;100675.38;5084685;28;20290;-81
2021/01/17 03:44:08;;;;;;;;;;;;;;;4.45;57.18;100676.97;5050121;28;19917;-82
2021/01/17 03:46:52;;;;;;;;;;;;;;;4.39;56.79;100674.56;5116732;28;19911;-81
2021/01/17 03:49:37;;;;;;;;;;;;;;;4.30;56.40;100668.94;5092501;28;19912;-81
2021/01/17 03:52:21;;;;;;;;;;;;;;;4.00;56.64;100660.94;5091945;28;19912;-82
2021/01/17 03:55:06;;;;;;;;;;;;;;;4.28;58.79;100665.69;5098665;28;20322;-80
2021/01/17 03:57:51;;;;;;;;;;;;;;;4.49;57.72;100661.84;5098657;28;19912;-80
2021/01/17 04:00:36;;;;;;;;;;;;;;;4.32;56.43;100664.88;5069579;28;19915;-81
2021/01/17 04:03:20;;;;;;;;;;;;;;;4.45;55.88;100670.75;5072897;28;19911;-80
2021/01/17 04:06:05;;;;;;;;;;;;;;;4.32;57.08;100667.56;5083123;28;19912;-81
2021/01/17 04:08:49;;;;;;;;;;;;;;;4.37;57.71;100680.19;5082933;28;19912;-81
2021/01/17 04:11:34;;;;;;;;;;;;;;;4.42;59.63;100676.72;5071323;28;19916;-81
2021/01/17 04:14:18;;;;;;;;;;;;;;;4.34;58.60;100683.44;5064102;28;19912;-80
2021/01/17 04:17:02;;;;;;;;;;;;;;;4.48;58.19;100686.34;5070536;28;19912;-80
2021/01/17 04:19:47;;;;;;;;;;;;;;;4.43;57.63;100686.38;5082932;28;19935;-80
2021/01/17 04:22:35;;;;;;;;;;;;;;;4.36;57.14;100677.81;5077630;28;19912;-79
2021/01/17 04:25:20;;;;;;;;;;;;;;;4.27;57.20;100675.66;5098212;28;19912;-80
2021/01/17 04:28:08;;;;;;;;;;;;;;;4.36;56.88;100673.22;5068663;28;19916;-79
2021/01/17 04:30:53;;;;;;;;;;;;;;;4.42;56.50;100657.88;5082428;28;20508;-80
2021/01/17 04:33:37;;;;;;;;;;;;;;;4.20;58.89;100667.09;5086413;28;19911;-80
2021/01/17 04:36:22;;;;;;;;;;;;;;;4.40;59.05;100668.09;5068174;28;19912;-80
2021/01/17 04:39:06;;;;;;;;;;;;;;;4.01;59.30;100670.63;5086578;28;19912;-80
2021/01/17 04:41:55;;;;;;;;;;;;;;;4.17;59.81;100659.53;5070832;28;19942;-80
2021/01/17 04:44:43;;;;;;;;;;;;;;;4.27;57.97;100656.00;5081680;28;20378;-80
2021/01/17 04:47:28;;;;;;;;;;;;;;;4.50;57.80;100658.09;5093130;28;19912;-80
2021/01/17 04:50:14;;;;;;;;;;;;;;;4.22;58.38;100661.41;5083849;28;19912;-80
2021/01/17 04:52:59;;;;;;;;;;;;;;;4.39;58.67;100647.63;5081387;28;19920;-79
2021/01/17 04:55:44;;;;;;;;;;;;;;;4.47;58.50;100641.69;5062603;28;20375;-80
2021/01/17 04:58:31;;;;;;;;;;;;;;;4.44;57.08;100636.84;5096019;28;19912;-81
2021/01/17 05:01:29;;;;;;;;;;;;;;;4.44;57.49;100631.47;5080563;28;19916;-79
2021/01/17 05:04:19;;;;;;;;;;;;;;;4.59;56.47;100626.81;5088148;28;19912;-81
2021/01/17 05:07:09;;;;;;;;;;;;;;;4.45;57.54;100622.31;5069779;28;20333;-80
2021/01/17 05:10:11;;;;;;;;;;;;;;;4.43;57.26;100611.00;5072084;28;19912;-80
2021/01/17 05:13:05;;;;;;;;;;;;;;;4.57;58.08;100601.25;5080547;28;19912;-80
2021/01/17 05:15:55;;;;;;;;;;;;;;;4.63;57.25;100602.81;5062442;28;19912;-80
2021/01/17 05:18:45;;;;;;;;;;;;;;;4.84;55.84;100598.91;5062302;28;19913;-80
2021/01/17 05:21:31;;;;;;;;;;;;;;;4.67;55.82;100603.88;5071132;28;19924;-80
2021/01/17 05:24:18;;;;;;;;;;;;;;;4.39;57.29;100607.25;5076514;28;19913;-80
2021/01/17 05:27:02;;;;;;;;;;;;;;;4.15;57.65;100612.47;5093319;28;19912;-80
2021/01/17 05:29:47;;;;;;;;;;;;;;;4.48;58.15;100610.97;5084638;28;20362;-80
2021/01/17 05:32:32;;;;;;;;;;;;;;;4.72;58.83;100615.41;5062459;28;19920;-80
2021/01/17 05:35:18;;;;;;;;;;;;;;;4.30;57.48;100615.91;5101464;28;19912;-80
2021/01/17 05:38:02;;;;;;;;;;;;;;;4.25;58.55;100607.06;5081103;28;19912;-79
2021/01/17 05:40:46;;;;;;;;;;;;;;;4.54;57.34;100607.19;5090896;28;19917;-80
2021/01/17 05:43:31;;;;;;;;;;;;;;;4.52;57.35;100607.44;5088149;28;19912;-80
2021/01/17 05:46:15;;;;;;;;;;;;;;;4.52;56.39;100612.03;5089578;28;19916;-80
2021/01/17 05:49:09;;;;;;;;;;;;;;;4.51;56.54;100615.81;5080659;28;19912;-80
2021/01/17 05:52:05;;;;;;;;;;;;;;;4.70;58.42;100617.59;5068462;28;19913;-81
2021/01/17 05:54:50;;;;;;;;;;;;;;;4.71;58.13;100618.41;5089143;28;19916;-81
2021/01/17 05:57:34;;;;;;;;;;;;;;;4.54;59.00;100616.06;5087392;28;19916;-80
2021/01/17 06:00:31;;;;;;;;;;;;;;;4.68;59.17;100622.44;5060913;28;19916;-81
2021/01/17 06:03:36;;;;;;;;;;;;;;;4.61;57.29;100621.16;5074518;28;20314;-81
2021/01/17 06:06:25;;;;;;;;;;;;;;;4.55;56.71;100614.16;5051978;28;20375;-80
2021/01/17 06:09:17;;;;;;;;;;;;;;;4.69;57.11;100609.78;5060478;28;19912;-80
2021/01/17 06:12:01;;;;;;;;;;;;;;;4.54;56.90;100612.56;5060281;28;19912;-81
2021/01/17 06:14:46;;;;;;;;;;;;;;;4.57;57.09;100623.56;5090427;28;19912;-80
2021/01/17 06:17:31;;;;;;;;;;;;;;;4.54;56.59;100624.13;5083263;28;19912;-80
2021/01/17 06:20:25;;;;;;;;;;;;;;;4.46;56.95;100630.13;5081602;28;19915;-80
2021/01/17 06:23:09;;;;;;;;;;;;;;;4.53;56.02;100622.53;5080215;28;19912;-80
2021/01/17 06:26:05;;;;;;;;;;;;;;;4.50;55.93;100625.78;5078233;28;20002;-80
2021/01/17 06:28:50;;;;;;;;;;;;;;;4.58;56.19;100627.06;5088861;28;19913;-79
2021/01/17 06:31:34;;;;;;;;;;;;;;;4.67;58.23;100628.13;5074660;28;19916;-80
2021/01/17 06:34:19;;;;;;;;;;;;;;;4.68;57.48;100627.00;5068123;28;19912;-80
2021/01/17 06:37:05;;;;;;;;;;;;;;;4.46;58.55;100621.22;5090661;28;19912;-80
2021/01/17 06:39:51;;;;;;;;;;;;;;;4.71;59.23;100635.38;5070904;28;19911;-80
2021/01/17 06:42:36;;;;;;;;;;;;;;;4.82;59.00;100635.31;5085111;28;20472;-80
2021/01/17 06:45:20;;;;;;;;;;;;;;;4.93;58.86;100640.31;5075404;28;19912;-81
2021/01/17 06:48:05;;;;;;;;;;;;;;;4.57;57.86;100636.25;5058239;28;19916;-79
2021/01/17 06:50:50;;;;;;;;;;;;;;;4.72;57.08;100633.47;5087154;28;19912;-80
2021/01/17 06:53:36;;;;;;;;;;;;;;;4.65;56.50;100639.16;5081051;28;19912;-80
2021/01/17 06:56:21;;;;;;;;;;;;;;;4.65;57.56;100643.75;5082282;28;19912;-80
2021/01/17 06:59:06;;;;;;;;;;;;;;;4.79;58.02;100644.72;5060302;28;19916;-80
2021/01/17 07:02:01;;;;;;;;;;;;;;;4.71;57.02;100637.25;5093076;28;19916;-80
2021/01/17 07:04:51;;;;;;;;;;;;;;;4.65;56.94;100641.84;5097283;28;19916;-80
2021/01/17 07:07:42;;;;;;;;;;;;;;;4.73;56.50;100638.56;5073771;28;19916;-80
2021/01/17 07:10:31;;;;;;;;;;;;;;;4.68;56.72;100627.00;5074366;28;20318;-80
2021/01/17 07:13:20;;;;;;;;;;;;;;;4.81;55.43;100631.81;5075387;28;19916;-79
2021/01/17 07:16:05;;;;;;;;;;;;;;;4.58;58.04;100654.81;5080863;28;19912;-80
2021/01/17 07:18:52;;;;;;;;;;;;;;;4.47;60.07;100660.53;5046599;28;19913;-80
2021/01/17 07:21:40;;;;;;;;;;;;;;;4.27;59.71;100664.91;5068024;28;19916;-80
2021/01/17 07:24:27;;;;;;;;;;;;;;;4.22;59.83;100672.97;5059785;28;19912;-80
2021/01/17 07:27:17;;;;;;;;;;;;;;;4.07;60.54;100673.03;5083434;22;19971;-84
2021/01/17 07:30:03;;;;;;;;;;;;;;;4.05;60.18;100667.13;5057368;28;19920;-85
2021/01/17 07:33:01;;;;;;;;;;;;;;;4.27;59.27;100670.28;5064009;28;19931;-85
2021/01/17 07:35:47;;;;;;;;;;;;;;;4.37;58.19;100663.28;5073619;28;20310;-85
2021/01/17 07:38:33;;;;;;;;;;;;;;;4.38;57.76;100673.75;5061995;28;20371;-84
2021/01/17 07:41:21;;;;;;;;;;;;;;;4.05;58.78;100675.19;5067211;28;19916;-85
2021/01/17 07:44:07;;;;;;;;;;;;;;;4.02;59.00;100674.91;5081780;28;19916;-85
2021/01/17 07:46:57;;;;;;;;;;;;;;;3.93;58.37;100671.19;5061198;28;19913;-86
2021/01/17 07:49:45;;;;;;;;;;;;;;;4.05;57.93;100672.50;5070766;28;19913;-85
2021/01/17 07:52:30;;;;;;;;;;;;;;;4.22;58.05;100682.94;5070180;28;19913;-85
2021/01/17 07:55:19;;;;;;;;;;;;;;;4.09;58.14;100689.72;5082023;28;19913;-84
2021/01/17 07:58:06;;;;;;;;;;;;;;;4.20;57.65;100675.16;5064004;28;19912;-84
2021/01/17 08:00:51;;;;;;;;;;;;;;;4.25;57.54;100668.94;5050307;28;19912;-84
2021/01/17 08:03:36;;;;;;;;;;;;;;;4.27;57.59;100664.91;5051563;28;19916;-86
2021/01/17 08:06:42;;;;;;;;;;;;;;;4.35;57.60;100670.81;5053699;28;20398;-82
2021/01/17 08:09:47;;;;;;;;;;;;;;;4.52;57.28;100677.44;5047898;28;19913;-84
2021/01/17 08:12:33;;;;;;;;;;;;;;;4.35;57.84;100677.00;5041676;28;19912;-85
2021/01/17 08:15:18;;;;;;;;;;;;;;;4.37;58.01;100690.19;5053870;28;20064;-85
2021/01/17 08:18:02;;;;;;;;;;;;;;;4.28;58.24;100685.34;5076897;28;19912;-84
2021/01/17 08:20:47;;;;;;;;;;;;;;;4.43;57.68;100683.69;5060674;28;19912;-83
2021/01/17 08:23:32;;;;;;;;;;;;;;;3.85;59.17;100700.25;5060313;28;19916;-86
2021/01/17 08:26:19;;;;;;;;;;;;;;;3.11;60.72;100691.88;5067726;28;19912;-87
2021/01/17 08:29:05;;;;;;;;;;;;;;;3.58;60.04;100688.16;5048557;28;19912;-86
2021/01/17 08:31:49;;;;;;;;;;;;;;;3.79;59.60;100700.53;5062496;28;19912;-86
2021/01/17 08:34:33;;;;;;;;;;;;;;;3.35;61.48;100698.34;5061554;28;19912;-84
2021/01/17 08:37:18;;;;;;;;;;;;;;;3.50;60.77;100694.91;5051266;28;19913;-86
2021/01/17 08:40:03;;;;;;;;;;;;;;;3.39;61.56;100706.72;5060963;28;20370;-87
2021/01/17 08:42:51;;;;;;;;;;;;;;;3.13;62.40;100713.13;5053135;28;19913;-87
2021/01/17 08:45:37;;;;;;;;;;;;;;;3.09;63.30;100704.78;5042355;28;19916;-85
2021/01/17 08:48:25;;;;;;;;;;;;;;;3.07;63.38;100706.94;5047916;28;19912;-87
2021/01/17 08:51:45;;;;;;;;;;;;;;;3.01;62.17;100713.34;5067730;28;19912;-86
2021/01/17 08:58:53;;;;;;;;;;;;;;;3.57;60.99;100708.84;5061261;28;19916;-85
2021/01/17 09:01:57;;;;;;;;;;;;;;;3.75;59.21;100710.22;5069633;28;19920;-85
2021/01/17 09:04:47;;;;;;;;;;;;;;;3.47;61.68;100716.09;5045918;28;19917;-85
2021/01/17 09:07:34;;;;;;;;;;;;;;;3.80;61.17;100721.78;5043797;28;19913;-87
2021/01/17 09:10:19;;;;;;;;;;;;;;;3.63;60.88;100715.84;5044342;28;19924;-84
2021/01/17 09:13:03;;;;;;;;;;;;;;;3.73;61.11;100712.34;5047270;28;19912;-85
2021/01/17 09:16:03;;;;;;;;;;;;;;;3.86;59.16;100717.19;5032183;28;19913;-86
2021/01/17 09:18:48;;;;;;;;;;;;;;;4.12;59.26;100710.69;5068509;28;20298;-86
2021/01/17 09:21:37;;;;;;;;;;;;;;;4.14;58.63;100719.31;5064408;28;19912;-85
2021/01/17 09:24:26;;;;;;;;;;;;;;;4.39;58.79;100720.31;5049702;28;19916;-84
2021/01/17 09:27:11;;;;;;;;;;;;;;;4.29;58.20;100732.72;5047820;28;19912;-86
2021/01/17 09:29:56;;;;;;;;;;;;;;;4.61;57.52;100729.66;5050957;28;19912;-85
2021/01/17 09:32:41;;;;;;;;;;;;;;;4.80;56.46;100731.75;5071243;28;19912;-84
2021/01/17 09:35:26;;;;;;;;;;;;;;;4.67;56.20;100738.53;5050308;28;19912;-85
2021/01/17 09:38:14;;;;;;;;;;;;;;;4.43;57.06;100734.81;5046905;28;19912;-86
2021/01/17 09:40:59;;;;;;;;;;;;;;;4.39;56.83;100741.84;5058755;28;19916;-85
2021/01/17 09:43:43;;;;;;;;;;;;;;;4.56;56.67;100734.28;5050997;28;19916;-86
2021/01/17 09:46:33;;;;;;;;;;;;;;;4.54;55.29;100741.81;5049825;28;19920;-84
2021/01/17 09:49:22;;;;;;;;;;;;;;;4.64;53.47;100745.25;5047276;28;20379;-86
2021/01/17 09:52:11;;;;;;;;;;;;;;;4.55;55.03;100746.13;5025646;28;19912;-85
2021/01/17 09:54:56;;;;;;;;;;;;;;;4.71;54.68;100745.78;5052494;28;19912;-87
2021/01/17 09:57:40;;;;;;;;;;;;;;;4.85;53.93;100748.69;5074315;28;19912;-83
2021/01/17 10:00:26;;;;;;;;;;;;;;;4.82;53.69;100740.38;5045912;28;19913;-84
2021/01/17 10:03:12;;;;;;;;;;;;;;;4.87;51.19;100743.84;5058765;28;19912;-84
2021/01/17 10:05:57;;;;;;;;;;;;;;;5.22;49.56;100744.72;5062733;28;19912;-83
2021/01/17 10:08:42;;;;;;;;;;;;;;;4.98;50.16;100740.00;5058293;28;19912;-84
2021/01/17 10:11:27;;;;;;;;;;;;;;;5.28;50.55;100739.03;5059626;28;19913;-83
2021/01/17 10:14:20;;;;;;;;;;;;;;;5.77;49.96;100730.03;5057839;28;19913;-82
2021/01/17 10:17:06;;;;;;;;;;;;;;;6.05;48.92;100736.56;5070219;28;19916;-83
2021/01/17 10:19:51;;;;;;;;;;;;;;;5.52;48.64;100722.97;5071225;28;19913;-82
2021/01/17 10:22:36;;;;;;;;;;;;;;;4.69;49.81;100721.00;5057580;28;20375;-85
2021/01/17 10:25:20;;;;;;;;;;;;;;;5.18;50.03;100717.53;5035092;28;19912;-86
2021/01/17 10:28:06;;;;;;;;;;;;;;;5.43;49.79;100720.06;5075424;28;19912;-86
2021/01/17 10:30:59;;;;;;;;;;;;;;;5.48;49.00;100716.53;5064581;28;19912;-87
2021/01/17 10:33:49;;;;;;;;;;;;;;;5.34;49.67;100710.13;5063589;28;19913;-86
2021/01/17 10:36:34;;;;;;;;;;;;;;;5.04;50.90;100716.53;5050181;28;19913;-87
2021/01/17 10:39:20;;;;;;;;;;;;;;;5.48;49.58;100720.03;5058903;28;20386;-87
2021/01/17 10:42:06;;;;;;;;;;;;;;;5.75;49.00;100719.53;5064824;28;19916;-87
2021/01/17 10:44:58;;;;;;;;;;;;;;;6.21;48.34;100711.03;5064002;28;19912;-89
2021/01/17 10:47:45;;;;;;;;;;;;;;;6.33;47.61;100714.16;5057689;28;20298;-85
2021/01/17 10:50:43;;;;;;;;;;;;;;;6.44;47.38;100702.94;5059500;28;19912;-81
2021/01/17 10:53:37;;;;;;;;;;;;;;;6.80;46.86;100699.81;5060284;28;19912;-86
2021/01/17 10:56:22;;;;;;;;;;;;;;;7.18;46.93;100695.22;5043839;28;20383;-84
2021/01/17 10:59:11;;;;;;;;;;;;;;;7.24;45.08;100692.16;5038393;28;19912;-84
2021/01/17 11:02:04;;;;;;;;;;;;;;;7.19;44.97;100691.41;5057186;28;19916;-88
2021/01/17 11:04:48;;;;;;;;;;;;;;;7.42;44.25;100695.91;5040816;28;20314;-86
2021/01/17 11:07:35;;;;;;;;;;;;;;;7.36;44.41;100689.00;5046381;28;20375;-86
2021/01/17 11:10:20;;;;;;;;;;;;;;;7.82;42.94;100686.34;5058578;28;19912;-86
2021/01/17 11:13:14;;;;;;;;;;;;;;;8.13;42.44;100681.16;5075634;28;19912;-85
2021/01/17 11:15:58;;;;;;;;;;;;;;;8.23;43.24;100678.25;5067898;28;19916;-84
2021/01/17 11:18:47;;;;;;;;;;;;;;;7.72;43.36;100679.19;5061104;28;19912;-85
2021/01/17 11:21:32;;;;;;;;;;;;;;;7.31;45.05;100672.84;5058986;28;19920;-86
2021/01/17 11:24:17;;;;;;;;;;;;;;;7.15;44.25;100671.47;5067826;28;19912;-85
2021/01/17 11:27:09;;;;;;;;;;;;;;;6.97;43.98;100674.97;5052389;28;19912;-87
2021/01/17 11:29:59;;;;;;;;;;;;;;;7.16;44.61;100670.38;5053010;28;19912;-85
2021/01/17 11:32:43;;;;;;;;;;;;;;;7.49;43.73;100669.31;5075936;28;20371;-85
2021/01/17 11:35:27;;;;;;;;;;;;;;;7.48;43.54;100659.56;5048229;28;19913;-86
2021/01/17 11:38:14;;;;;;;;;;;;;;;7.95;42.27;100657.69;5045784;28;19912;-86
2021/01/17 11:41:08;;;;;;;;;;;;;;;8.06;41.57;100662.63;5081284;28;19916;-85
2021/01/17 11:44:06;;;;;;;;;;;;;;;8.77;40.01;100658.50;5033448;28;20395;-85
2021/01/17 11:46:51;;;;;;;;;;;;;;;8.14;40.87;100652.97;5040749;28;19912;-85
2021/01/17 11:49:35;;;;;;;;;;;;;;;7.22;43.28;100647.56;5049235;28;19912;-85
2021/01/17 11:52:20;;;;;;;;;;;;;;;7.12;44.16;100639.59;5060508;28;19913;-86
2021/01/17 11:55:07;;;;;;;;;;;;;;;6.97;44.45;100627.13;5046950;28;20291;-85
2021/01/17 11:58:05;;;;;;;;;;;;;;;6.87;44.62;100628.06;5058962;28;19912;-85
2021/01/17 12:00:54;;;;;;;;;;;;;;;6.82;44.97;100620.03;5062048;28;19913;-85
2021/01/17 12:03:40;;;;;;;;;;;;;;;7.16;43.45;100610.91;5062028;28;19916;-85
2021/01/17 12:06:30;;;;;;;;;;;;;;;7.18;44.03;100605.97;5063850;28;19912;-86
2021/01/17 12:09:18;;;;;;;;;;;;;;;6.93;44.29;100606.38;5066014;28;19920;-86
2021/01/17 12:12:09;;;;;;;;;;;;;;;7.65;42.82;100604.91;5066998;28;19912;-85
2021/01/17 12:14:58;;;;;;;;;;;;;;;8.07;40.87;100604.66;5080077;28;19912;-86
2021/01/17 12:17:42;;;;;;;;;;;;;;;7.83;41.22;100604.00;5064245;28;19913;-86
2021/01/17 12:20:27;;;;;;;;;;;;;;;8.06;42.27;100610.38;5059378;28;19913;-86
2021/01/17 12:23:13;;;;;;;;;;;;;;;8.84;39.87;100609.25;5050771;28;19916;-86
2021/01/17 12:25:58;;;;;;;;;;;;;;;8.31;40.31;100609.88;5052586;28;20401;-85
2021/01/17 12:28:43;;;;;;;;;;;;;;;7.92;41.81;100604.94;5060717;28;19920;-85
2021/01/17 12:31:35;;;;;;;;;;;;;;;8.66;40.79;100604.81;5062068;28;19912;-84
2021/01/17 12:34:25;;;;;;;;;;;;;;;8.72;39.88;100603.59;5065596;28;19916;-85
2021/01/17 12:37:09;;;;;;;;;;;;;;;8.66;40.29;100593.97;5062372;28;19913;-86
2021/01/17 12:40:25;;;;;;;;;;;;;;;8.41;40.48;100596.13;5054491;28;19912;-86
2021/01/17 12:43:09;;;;;;;;;;;;;;;8.37;40.46;100603.25;5049615;28;20298;-85
2021/01/17 12:45:54;;;;;;;;;;;;;;;8.16;40.72;100592.00;5049279;28;19912;-82
2021/01/17 12:48:41;;;;;;;;;;;;;;;7.71;41.77;100590.19;5052547;28;19920;-85
2021/01/17 12:51:25;;;;;;;;;;;;;;;7.85;41.74;100595.59;5075414;28;19913;-84
2021/01/17 12:54:10;;;;;;;;;;;;;;;8.52;39.92;100599.41;5075467;28;19913;-88
2021/01/17 12:56:56;;;;;;;;;;;;;;;7.85;41.20;100584.78;5056394;28;19912;-81
2021/01/17 12:59:42;;;;;;;;;;;;;;;8.19;42.25;100601.41;5055155;28;19912;-84
2021/01/17 13:02:27;;;;;;;;;;;;;;;8.55;40.56;100596.91;5072965;28;20334;-85
2021/01/17 13:05:12;;;;;;;;;;;;;;;8.39;40.96;100595.63;5063231;28;19912;-85
2021/01/17 13:07:56;;;;;;;;;;;;;;;8.43;40.61;100591.19;5041361;28;19913;-85
2021/01/17 13:10:40;;;;;;;;;;;;;;;8.50;39.24;100599.72;5053594;28;20521;-83
2021/01/17 13:13:25;;;;;;;;;;;;;;;8.48;40.34;100595.72;5055204;28;19913;-84
2021/01/17 13:16:14;;;;;;;;;;;;;;;8.26;40.73;100599.13;5045776;28;19920;-84
2021/01/17 13:18:59;;;;;;;;;;;;;;;8.05;41.19;100590.59;5058207;28;19916;-82
2021/01/17 13:21:47;;;;;;;;;;;;;;;8.00;41.88;100587.19;5076121;28;19916;-83
2021/01/17 13:24:31;;;;;;;;;;;;;;;7.72;43.02;100594.47;5033788;28;20382;-83
2021/01/17 13:27:15;;;;;;;;;;;;;;;7.09;43.48;100591.53;5055392;28;19920;-85
2021/01/17 13:30:00;;;;;;;;;;;;;;;7.23;43.11;100590.47;5055144;28;19912;-84
2021/01/17 13:32:45;;;;;;;;;;;;;;;7.45;43.17;100586.31;5066994;28;20367;-81
2021/01/17 13:35:33;;;;;;;;;;;;;;;6.98;44.48;100580.06;5049574;28;19913;-85
2021/01/17 13:38:19;;;;;;;;;;;;;;;6.92;45.12;100586.66;5066225;28;20389;-83
2021/01/17 13:41:04;;;;;;;;;;;;;;;6.49;45.31;100583.22;5067565;28;19913;-85
2021/01/17 13:43:48;;;;;;;;;;;;;;;6.78;45.35;100581.19;5052484;28;20295;-84
2021/01/17 13:46:33;;;;;;;;;;;;;;;6.56;45.23;100588.25;5042930;28;19912;-84
2021/01/17 13:49:18;;;;;;;;;;;;;;;6.46;45.83;100586.50;5048763;28;19939;-87
2021/01/17 13:52:05;;;;;;;;;;;;;;;6.42;45.77;100598.97;5050912;28;19980;-87
2021/01/17 13:54:50;;;;;;;;;;;;;;;6.45;46.40;100596.50;5074756;28;19912;-86
2021/01/17 13:57:38;;;;;;;;;;;;;;;6.68;45.56;100607.56;5042275;28;20291;-86
2021/01/17 14:00:24;;;;;;;;;;;;;;;6.73;44.77;100608.28;5077555;22;19928;-90
2021/01/17 14:03:08;;;;;;;;;;;;;;;6.84;44.59;100607.03;5080428;28;19925;-90
2021/01/17 14:05:54;;;;;;;;;;;;;;;6.78;44.26;100610.91;5088963;28;20362;-89
2021/01/17 14:08:40;;;;;;;;;;;;;;;7.03;44.44;100617.03;5106665;28;19912;-90
2021/01/17 14:11:33;;;;;;;;;;;;;;;6.94;44.82;100621.50;5096826;28;20402;-90
2021/01/17 14:14:17;;;;;;;;;;;;;;;7.19;44.51;100631.91;5085997;28;19912;-90
2021/01/17 14:17:04;;;;;;;;;;;;;;;7.02;44.54;100628.94;5100669;28;19913;-90
2021/01/17 14:19:49;;;;;;;;;;;;;;;6.91;44.85;100630.22;5089644;28;19912;-90
2021/01/17 14:22:35;;;;;;;;;;;;;;;6.50;45.68;100630.75;5096053;28;19916;-90
2021/01/17 14:25:20;;;;;;;;;;;;;;;6.29;46.38;100629.41;5096082;28;19913;-90
2021/01/17 14:28:05;;;;;;;;;;;;;;;6.05;47.04;100629.41;5079428;28;19920;-90
2021/01/17 14:30:51;;;;;;;;;;;;;;;5.87;47.36;100632.84;5098307;28;19912;-91
2021/01/17 14:33:35;;;;;;;;;;;;;;;5.83;47.89;100626.38;5119099;28;19912;-90